sensor_id;sensor_type;location;lat;lon;timestamp;pressure;altitude;pressure_sealevel;temperature;humidity
8320;BME280;4197;42.130;24.746;2023-06-22T00:01:22;99704.28;;;22.73;82.18
8320;BME280;4197;42.130;24.746;2023-06-22T00:03:50;99716.19;;;22.69;83.06
8320;BME280;4197;42.130;24.746;2023-06-22T00:06:19;99704.44;;;22.65;83.75
8320;BME280;4197;42.130;24.746;2023-06-22T00:08:47;99713.97;;;22.64;84.94
8320;BME280;4197;42.130;24.746;2023-06-22T00:11:15;99714.78;;;22.61;84.94
8320;BME280;4197;42.130;24.746;2023-06-22T00:13:45;99716.09;;;22.57;85.39
8320;BME280;4197;42.130;24.746;2023-06-22T00:16:14;99714.19;;;22.54;86.16
8320;BME280;4197;42.130;24.746;2023-06-22T00:18:43;99715.81;;;22.51;86.56
8320;BME280;4197;42.130;24.746;2023-06-22T00:21:14;99719.44;;;22.48;87.29
8320;BME280;4197;42.130;24.746;2023-06-22T00:23:42;99719.94;;;22.43;88.06
8320;BME280;4197;42.130;24.746;2023-06-22T00:26:10;99725.97;;;22.38;88.48
8320;BME280;4197;42.130;24.746;2023-06-22T00:28:39;99731.50;;;22.38;89.39
8320;BME280;4197;42.130;24.746;2023-06-22T00:31:09;99733.50;;;22.37;89.94
8320;BME280;4197;42.130;24.746;2023-06-22T00:33:37;99732.00;;;22.33;90.29
8320;BME280;4197;42.130;24.746;2023-06-22T00:36:06;99730.81;;;22.34;91.79
8320;BME280;4197;42.130;24.746;2023-06-22T00:38:35;99728.06;;;22.34;92.02
8320;BME280;4197;42.130;24.746;2023-06-22T00:41:07;99734.06;;;22.29;92.24
8320;BME280;4197;42.130;24.746;2023-06-22T00:43:35;99729.03;;;22.23;93.47
8320;BME280;4197;42.130;24.746;2023-06-22T00:46:04;99732.66;;;22.20;94.35
8320;BME280;4197;42.130;24.746;2023-06-22T00:48:33;99737.88;;;22.15;94.78
8320;BME280;4197;42.130;24.746;2023-06-22T00:51:04;99735.69;;;22.06;95.71
8320;BME280;4197;42.130;24.746;2023-06-22T00:53:32;99735.44;;;21.97;96.69
8320;BME280;4197;42.130;24.746;2023-06-22T00:56:02;99738.69;;;21.92;97.84
8320;BME280;4197;42.130;24.746;2023-06-22T00:58:31;99732.03;;;21.89;98.89
8320;BME280;4197;42.130;24.746;2023-06-22T01:00:59;99727.31;;;21.90;99.57
8320;BME280;4197;42.130;24.746;2023-06-22T01:03:28;99736.31;;;21.94;99.27
8320;BME280;4197;42.130;24.746;2023-06-22T01:06:13;99723.56;;;21.80;100.00
8320;BME280;4197;42.130;24.746;2023-06-22T01:08:48;99732.03;;;21.69;100.00
8320;BME280;4197;42.130;24.746;2023-06-22T01:11:22;99732.50;;;21.64;100.00
8320;BME280;4197;42.130;24.746;2023-06-22T01:13:59;99726.88;;;21.71;100.00
8320;BME280;4197;42.130;24.746;2023-06-22T01:16:30;99730.34;;;21.75;100.00
8320;BME280;4197;42.130;24.746;2023-06-22T01:19:18;99735.34;;;21.60;100.00
8320;BME280;4197;42.130;24.746;2023-06-22T01:21:55;99735.13;;;21.51;100.00
8320;BME280;4197;42.130;24.746;2023-06-22T01:24:27;99729.31;;;21.46;100.00
8320;BME280;4197;42.130;24.746;2023-06-22T01:27:12;99726.72;;;21.35;100.00
8320;BME280;4197;42.130;24.746;2023-06-22T01:29:51;99722.81;;;21.32;100.00
8320;BME280;4197;42.130;24.746;2023-06-22T01:32:21;99726.41;;;21.29;100.00
8320;BME280;4197;42.130;24.746;2023-06-22T01:34:49;99734.38;;;21.24;100.00
8320;BME280;4197;42.130;24.746;2023-06-22T01:37:18;99733.19;;;21.25;100.00
8320;BME280;4197;42.130;24.746;2023-06-22T01:39:47;99726.13;;;21.24;100.00
8320;BME280;4197;42.130;24.746;2023-06-22T01:42:17;99723.06;;;21.18;100.00
8320;BME280;4197;42.130;24.746;2023-06-22T01:44:46;99716.81;;;21.14;100.00
8320;BME280;4197;42.130;24.746;2023-06-22T01:47:16;99711.75;;;21.09;100.00
8320;BME280;4197;42.130;24.746;2023-06-22T01:49:45;99714.59;;;21.05;100.00
8320;BME280;4197;42.130;24.746;2023-06-22T01:52:14;99716.94;;;21.07;100.00
8320;BME280;4197;42.130;24.746;2023-06-22T01:54:43;99718.56;;;21.04;100.00
8320;BME280;4197;42.130;24.746;2023-06-22T01:57:11;99722.50;;;21.03;100.00
8320;BME280;4197;42.130;24.746;2023-06-22T01:59:47;99727.59;;;21.05;100.00
8320;BME280;4197;42.130;24.746;2023-06-22T02:02:20;99724.00;;;21.08;100.00
8320;BME280;4197;42.130;24.746;2023-06-22T02:04:57;99733.03;;;21.08;100.00
8320;BME280;4197;42.130;24.746;2023-06-22T02:07:31;99729.50;;;21.08;100.00
8320;BME280;4197;42.130;24.746;2023-06-22T02:10:02;99722.75;;;21.12;100.00
8320;BME280;4197;42.130;24.746;2023-06-22T02:12:32;99721.97;;;21.12;100.00
8320;BME280;4197;42.130;24.746;2023-06-22T02:15:03;99723.00;;;20.98;100.00
8320;BME280;4197;42.130;24.746;2023-06-22T02:17:35;99718.34;;;20.91;100.00
8320;BME280;4197;42.130;24.746;2023-06-22T02:20:03;99720.31;;;20.91;100.00
8320;BME280;4197;42.130;24.746;2023-06-22T02:22:35;99726.25;;;20.89;100.00
8320;BME280;4197;42.130;24.746;2023-06-22T02:25:04;99716.13;;;20.83;100.00
8320;BME280;4197;42.130;24.746;2023-06-22T02:27:32;99722.41;;;20.83;100.00
8320;BME280;4197;42.130;24.746;2023-06-22T02:30:01;99733.09;;;20.81;100.00
8320;BME280;4197;42.130;24.746;2023-06-22T02:32:29;99724.97;;;20.70;100.00
8320;BME280;4197;42.130;24.746;2023-06-22T02:34:59;99727.09;;;20.59;100.00
8320;BME280;4197;42.130;24.746;2023-06-22T02:37:31;99726.22;;;20.66;100.00
8320;BME280;4197;42.130;24.746;2023-06-22T02:39:59;99734.09;;;20.64;100.00
8320;BME280;4197;42.130;24.746;2023-06-22T02:42:27;99736.53;;;20.58;100.00
8320;BME280;4197;42.130;24.746;2023-06-22T02:44:55;99738.53;;;20.58;100.00
8320;BME280;4197;42.130;24.746;2023-06-22T02:47:23;99744.88;;;20.55;100.00
8320;BME280;4197;42.130;24.746;2023-06-22T02:49:51;99736.59;;;20.55;100.00
8320;BME280;4197;42.130;24.746;2023-06-22T02:52:21;99750.44;;;20.47;100.00
8320;BME280;4197;42.130;24.746;2023-06-22T02:54:49;99738.25;;;20.48;100.00
8320;BME280;4197;42.130;24.746;2023-06-22T02:57:18;99748.06;;;20.49;100.00
8320;BME280;4197;42.130;24.746;2023-06-22T02:59:46;99748.50;;;20.44;100.00
8320;BME280;4197;42.130;24.746;2023-06-22T03:02:14;99750.88;;;20.46;100.00
8320;BME280;4197;42.130;24.746;2023-06-22T03:04:42;99753.53;;;20.53;100.00
8320;BME280;4197;42.130;24.746;2023-06-22T03:07:15;99754.16;;;20.64;100.00
8320;BME280;4197;42.130;24.746;2023-06-22T03:09:46;99760.00;;;20.70;100.00
8320;BME280;4197;42.130;24.746;2023-06-22T03:12:15;99753.72;;;20.69;100.00
8320;BME280;4197;42.130;24.746;2023-06-22T03:14:43;99758.38;;;20.72;100.00
8320;BME280;4197;42.130;24.746;2023-06-22T03:17:12;99759.91;;;20.77;100.00
8320;BME280;4197;42.130;24.746;2023-06-22T03:19:42;99760.31;;;20.76;100.00
8320;BME280;4197;42.130;24.746;2023-06-22T03:22:12;99764.59;;;20.80;100.00
8320;BME280;4197;42.130;24.746;2023-06-22T03:24:41;99764.81;;;20.93;100.00
8320;BME280;4197;42.130;24.746;2023-06-22T03:27:11;99776.91;;;20.99;100.00
8320;BME280;4197;42.130;24.746;2023-06-22T03:29:39;99768.13;;;21.08;100.00
8320;BME280;4197;42.130;24.746;2023-06-22T03:32:08;99768.47;;;21.10;100.00
8320;BME280;4197;42.130;24.746;2023-06-22T03:34:36;99769.09;;;21.21;100.00
8320;BME280;4197;42.130;24.746;2023-06-22T03:37:04;99769.97;;;21.42;98.46
8320;BME280;4197;42.130;24.746;2023-06-22T03:39:32;99775.78;;;21.47;98.76
8320;BME280;4197;42.130;24.746;2023-06-22T03:42:00;99779.88;;;21.63;99.13
8320;BME280;4197;42.130;24.746;2023-06-22T03:44:30;99783.75;;;21.65;99.36
8320;BME280;4197;42.130;24.746;2023-06-22T03:46:58;99776.47;;;21.75;97.85
8320;BME280;4197;42.130;24.746;2023-06-22T03:49:26;99775.59;;;21.81;96.47
8320;BME280;4197;42.130;24.746;2023-06-22T03:51:54;99783.38;;;21.87;95.97
8320;BME280;4197;42.130;24.746;2023-06-22T03:54:23;99785.31;;;21.90;95.99
8320;BME280;4197;42.130;24.746;2023-06-22T03:56:51;99785.94;;;21.97;95.44
8320;BME280;4197;42.130;24.746;2023-06-22T03:59:19;99779.16;;;22.02;94.12
8320;BME280;4197;42.130;24.746;2023-06-22T04:01:49;99781.78;;;22.09;94.09
8320;BME280;4197;42.130;24.746;2023-06-22T04:04:18;99784.38;;;22.20;93.36
8320;BME280;4197;42.130;24.746;2023-06-22T04:06:46;99774.28;;;22.30;92.20
8320;BME280;4197;42.130;24.746;2023-06-22T04:09:15;99775.56;;;22.45;89.62
8320;BME280;4197;42.130;24.746;2023-06-22T04:11:43;99781.38;;;22.51;89.46
8320;BME280;4197;42.130;24.746;2023-06-22T04:14:11;99783.09;;;22.61;89.11
8320;BME280;4197;42.130;24.746;2023-06-22T04:16:39;99784.00;;;22.74;88.36
8320;BME280;4197;42.130;24.746;2023-06-22T04:19:09;99786.47;;;22.88;87.27
8320;BME280;4197;42.130;24.746;2023-06-22T04:21:43;99787.47;;;22.98;86.70
8320;BME280;4197;42.130;24.746;2023-06-22T04:24:11;99792.41;;;23.07;85.44
8320;BME280;4197;42.130;24.746;2023-06-22T04:26:39;99795.59;;;23.22;84.11
8320;BME280;4197;42.130;24.746;2023-06-22T04:29:08;99794.41;;;23.23;84.13
8320;BME280;4197;42.130;24.746;2023-06-22T04:31:37;99784.97;;;23.36;83.50
8320;BME280;4197;42.130;24.746;2023-06-22T04:34:07;99786.78;;;23.59;81.52
8320;BME280;4197;42.130;24.746;2023-06-22T04:36:38;99789.34;;;23.83;79.27
8320;BME280;4197;42.130;24.746;2023-06-22T04:39:09;99783.97;;;23.92;78.75
8320;BME280;4197;42.130;24.746;2023-06-22T04:41:38;99790.13;;;23.84;79.68
8320;BME280;4197;42.130;24.746;2023-06-22T04:44:12;99794.31;;;24.04;77.61
8320;BME280;4197;42.130;24.746;2023-06-22T04:46:41;99791.88;;;24.07;77.26
8320;BME280;4197;42.130;24.746;2023-06-22T04:49:09;99797.16;;;24.30;75.38
8320;BME280;4197;42.130;24.746;2023-06-22T04:51:40;99793.31;;;24.40;75.24
8320;BME280;4197;42.130;24.746;2023-06-22T04:54:09;99784.84;;;24.47;74.64
8320;BME280;4197;42.130;24.746;2023-06-22T04:56:37;99790.69;;;24.49;75.02
8320;BME280;4197;42.130;24.746;2023-06-22T04:59:07;99782.22;;;24.69;73.76
8320;BME280;4197;42.130;24.746;2023-06-22T05:01:39;99778.22;;;24.83;73.00
8320;BME280;4197;42.130;24.746;2023-06-22T05:04:08;99772.22;;;24.98;72.05
8320;BME280;4197;42.130;24.746;2023-06-22T05:06:36;99780.00;;;25.15;71.04
8320;BME280;4197;42.130;24.746;2023-06-22T05:09:08;99773.75;;;25.24;71.13
8320;BME280;4197;42.130;24.746;2023-06-22T05:11:36;99774.44;;;25.28;71.26
8320;BME280;4197;42.130;24.746;2023-06-22T05:14:04;99778.41;;;25.27;70.53
8320;BME280;4197;42.130;24.746;2023-06-22T05:16:34;99778.94;;;25.48;69.89
8320;BME280;4197;42.130;24.746;2023-06-22T05:19:04;99776.16;;;25.82;67.13
8320;BME280;4197;42.130;24.746;2023-06-22T05:21:32;99779.97;;;26.11;66.07
8320;BME280;4197;42.130;24.746;2023-06-22T05:24:00;99766.84;;;26.11;65.31
8320;BME280;4197;42.130;24.746;2023-06-22T05:26:32;99771.44;;;26.05;66.59
8320;BME280;4197;42.130;24.746;2023-06-22T05:29:05;99777.06;;;26.36;64.37
8320;BME280;4197;42.130;24.746;2023-06-22T05:31:34;99782.03;;;26.63;63.46
8320;BME280;4197;42.130;24.746;2023-06-22T05:34:02;99783.50;;;26.77;62.94
8320;BME280;4197;42.130;24.746;2023-06-22T05:36:32;99785.53;;;26.86;62.50
8320;BME280;4197;42.130;24.746;2023-06-22T05:39:11;99780.06;;;26.73;63.38
8320;BME280;4197;42.130;24.746;2023-06-22T05:41:41;99781.03;;;27.29;60.28
8320;BME280;4197;42.130;24.746;2023-06-22T05:44:10;99776.56;;;27.22;60.57
8320;BME280;4197;42.130;24.746;2023-06-22T05:46:41;99783.53;;;27.36;60.81
8320;BME280;4197;42.130;24.746;2023-06-22T05:49:14;99780.00;;;27.35;58.83
8320;BME280;4197;42.130;24.746;2023-06-22T05:51:45;99784.19;;;27.68;57.89
8320;BME280;4197;42.130;24.746;2023-06-22T05:54:13;99781.44;;;27.95;57.80
8320;BME280;4197;42.130;24.746;2023-06-22T05:56:46;99781.75;;;28.07;57.44
8320;BME280;4197;42.130;24.746;2023-06-22T05:59:18;99787.16;;;28.01;58.23
8320;BME280;4197;42.130;24.746;2023-06-22T06:01:46;99791.66;;;28.17;57.04
8320;BME280;4197;42.130;24.746;2023-06-22T06:04:17;99784.34;;;28.29;55.86
8320;BME280;4197;42.130;24.746;2023-06-22T06:06:45;99782.63;;;28.50;55.02
8320;BME280;4197;42.130;24.746;2023-06-22T06:09:15;99780.94;;;28.43;55.07
8320;BME280;4197;42.130;24.746;2023-06-22T06:11:43;99776.31;;;28.82;53.74
8320;BME280;4197;42.130;24.746;2023-06-22T06:14:15;99786.59;;;29.09;50.76
8320;BME280;4197;42.130;24.746;2023-06-22T06:16:44;99779.50;;;28.99;51.04
8320;BME280;4197;42.130;24.746;2023-06-22T06:19:13;99780.50;;;29.20;49.94
8320;BME280;4197;42.130;24.746;2023-06-22T06:21:41;99777.28;;;29.37;49.12
8320;BME280;4197;42.130;24.746;2023-06-22T06:24:11;99776.28;;;29.25;49.60
8320;BME280;4197;42.130;24.746;2023-06-22T06:26:39;99771.81;;;29.18;48.96
8320;BME280;4197;42.130;24.746;2023-06-22T06:29:09;99775.28;;;29.13;48.54
8320;BME280;4197;42.130;24.746;2023-06-22T06:31:39;99773.13;;;28.99;49.16
8320;BME280;4197;42.130;24.746;2023-06-22T06:34:08;99775.91;;;28.99;48.85
8320;BME280;4197;42.130;24.746;2023-06-22T06:36:36;99769.81;;;28.85;49.24
8320;BME280;4197;42.130;24.746;2023-06-22T06:39:04;99769.31;;;28.87;49.52
8320;BME280;4197;42.130;24.746;2023-06-22T06:41:32;99776.03;;;28.80;49.17
8320;BME280;4197;42.130;24.746;2023-06-22T06:44:02;99774.81;;;28.72;49.62
8320;BME280;4197;42.130;24.746;2023-06-22T06:46:31;99775.75;;;28.69;48.93
8320;BME280;4197;42.130;24.746;2023-06-22T06:49:01;99775.00;;;28.59;49.38
8320;BME280;4197;42.130;24.746;2023-06-22T06:51:30;99775.63;;;28.54;49.53
8320;BME280;4197;42.130;24.746;2023-06-22T06:53:58;99771.97;;;28.81;48.51
8320;BME280;4197;42.130;24.746;2023-06-22T06:56:27;99764.47;;;28.97;47.51
8320;BME280;4197;42.130;24.746;2023-06-22T06:58:56;99773.13;;;28.99;47.17
8320;BME280;4197;42.130;24.746;2023-06-22T07:01:25;99771.28;;;28.96;48.19
8320;BME280;4197;42.130;24.746;2023-06-22T07:03:54;99770.66;;;29.10;47.63
8320;BME280;4197;42.130;24.746;2023-06-22T07:06:24;99770.53;;;29.28;48.00
8320;BME280;4197;42.130;24.746;2023-06-22T07:08:55;99771.72;;;29.37;46.49
8320;BME280;4197;42.130;24.746;2023-06-22T07:11:23;99766.78;;;29.55;46.42
8320;BME280;4197;42.130;24.746;2023-06-22T07:13:52;99762.56;;;29.60;46.42
8320;BME280;4197;42.130;24.746;2023-06-22T07:16:20;99761.75;;;29.60;46.50
8320;BME280;4197;42.130;24.746;2023-06-22T07:18:49;99773.56;;;29.64;45.86
8320;BME280;4197;42.130;24.746;2023-06-22T07:21:18;99770.28;;;29.65;46.28
8320;BME280;4197;42.130;24.746;2023-06-22T07:23:48;99769.69;;;29.61;46.25
8320;BME280;4197;42.130;24.746;2023-06-22T07:26:16;99773.31;;;29.52;46.29
8320;BME280;4197;42.130;24.746;2023-06-22T07:28:44;99777.78;;;29.35;45.94
8320;BME280;4197;42.130;24.746;2023-06-22T07:31:13;99768.25;;;29.18;46.68
8320;BME280;4197;42.130;24.746;2023-06-22T07:33:41;99773.75;;;29.03;47.41
8320;BME280;4197;42.130;24.746;2023-06-22T07:36:09;99770.66;;;29.01;46.59
8320;BME280;4197;42.130;24.746;2023-06-22T07:38:38;99782.44;;;28.96;46.28
8320;BME280;4197;42.130;24.746;2023-06-22T07:41:08;99775.84;;;28.84;47.02
8320;BME280;4197;42.130;24.746;2023-06-22T07:43:37;99773.00;;;28.93;46.94
8320;BME280;4197;42.130;24.746;2023-06-22T07:46:05;99779.44;;;29.18;46.19
8320;BME280;4197;42.130;24.746;2023-06-22T07:48:37;99774.50;;;29.37;45.25
8320;BME280;4197;42.130;24.746;2023-06-22T07:51:06;99771.25;;;29.38;44.45
8320;BME280;4197;42.130;24.746;2023-06-22T07:53:34;99777.84;;;29.50;44.40
8320;BME280;4197;42.130;24.746;2023-06-22T07:56:03;99775.88;;;29.65;44.35
8320;BME280;4197;42.130;24.746;2023-06-22T07:58:35;99768.09;;;29.69;43.62
8320;BME280;4197;42.130;24.746;2023-06-22T08:01:03;99767.25;;;29.78;44.02
8320;BME280;4197;42.130;24.746;2023-06-22T08:03:36;99766.59;;;29.83;42.33
8320;BME280;4197;42.130;24.746;2023-06-22T08:06:04;99765.81;;;29.83;42.81
8320;BME280;4197;42.130;24.746;2023-06-22T08:08:33;99764.19;;;29.91;40.97
8320;BME280;4197;42.130;24.746;2023-06-22T08:11:01;99767.09;;;29.96;42.08
8320;BME280;4197;42.130;24.746;2023-06-22T08:13:29;99764.00;;;30.09;41.51
8320;BME280;4197;42.130;24.746;2023-06-22T08:15:59;99762.28;;;30.12;41.29
8320;BME280;4197;42.130;24.746;2023-06-22T08:18:28;99754.38;;;30.10;41.61
8320;BME280;4197;42.130;24.746;2023-06-22T08:20:57;99748.81;;;30.25;40.38
8320;BME280;4197;42.130;24.746;2023-06-22T08:23:25;99752.06;;;30.23;40.27
8320;BME280;4197;42.130;24.746;2023-06-22T08:25:53;99751.31;;;30.23;41.17
8320;BME280;4197;42.130;24.746;2023-06-22T08:28:22;99752.56;;;30.37;39.31
8320;BME280;4197;42.130;24.746;2023-06-22T08:30:52;99742.63;;;30.51;39.05
8320;BME280;4197;42.130;24.746;2023-06-22T08:33:23;99735.88;;;30.57;39.47
8320;BME280;4197;42.130;24.746;2023-06-22T08:35:55;99739.25;;;30.32;40.30
8320;BME280;4197;42.130;24.746;2023-06-22T08:38:24;99738.16;;;30.59;39.43
8320;BME280;4197;42.130;24.746;2023-06-22T08:40:52;99733.34;;;30.59;39.69
8320;BME280;4197;42.130;24.746;2023-06-22T08:43:20;99732.88;;;30.61;40.90
8320;BME280;4197;42.130;24.746;2023-06-22T08:45:48;99731.78;;;30.88;40.90
8320;BME280;4197;42.130;24.746;2023-06-22T08:48:17;99728.44;;;31.04;36.46
8320;BME280;4197;42.130;24.746;2023-06-22T08:50:46;99732.22;;;31.01;36.46
8320;BME280;4197;42.130;24.746;2023-06-22T08:53:14;99725.34;;;31.02;36.92
8320;BME280;4197;42.130;24.746;2023-06-22T08:55:43;99727.81;;;31.15;37.14
8320;BME280;4197;42.130;24.746;2023-06-22T08:58:11;99735.44;;;31.15;36.48
8320;BME280;4197;42.130;24.746;2023-06-22T09:00:39;99736.69;;;31.14;36.31
8320;BME280;4197;42.130;24.746;2023-06-22T09:03:08;99725.78;;;31.16;36.51
8320;BME280;4197;42.130;24.746;2023-06-22T09:05:37;99729.56;;;31.13;37.57
8320;BME280;4197;42.130;24.746;2023-06-22T09:08:06;99735.56;;;31.41;36.65
8320;BME280;4197;42.130;24.746;2023-06-22T09:10:35;99718.59;;;31.50;36.37
8320;BME280;4197;42.130;24.746;2023-06-22T09:13:03;99722.03;;;31.60;35.87
8320;BME280;4197;42.130;24.746;2023-06-22T09:15:32;99722.03;;;31.60;36.12
8320;BME280;4197;42.130;24.746;2023-06-22T09:18:01;99729.16;;;31.61;35.94
8320;BME280;4197;42.130;24.746;2023-06-22T09:20:30;99732.72;;;31.61;35.23
8320;BME280;4197;42.130;24.746;2023-06-22T09:22:59;99733.94;;;31.54;36.04
8320;BME280;4197;42.130;24.746;2023-06-22T09:25:28;99731.97;;;31.61;35.16
8320;BME280;4197;42.130;24.746;2023-06-22T09:27:57;99722.03;;;31.60;34.52
8320;BME280;4197;42.130;24.746;2023-06-22T09:30:26;99722.38;;;31.47;34.83
8320;BME280;4197;42.130;24.746;2023-06-22T09:32:55;99725.66;;;31.66;35.29
8320;BME280;4197;42.130;24.746;2023-06-22T09:35:24;99716.22;;;31.43;33.95
8320;BME280;4197;42.130;24.746;2023-06-22T09:37:52;99716.41;;;31.60;34.86
8320;BME280;4197;42.130;24.746;2023-06-22T09:40:22;99707.66;;;31.78;34.89
8320;BME280;4197;42.130;24.746;2023-06-22T09:42:52;99709.06;;;31.88;34.31
8320;BME280;4197;42.130;24.746;2023-06-22T09:45:20;99718.47;;;32.11;33.89
8320;BME280;4197;42.130;24.746;2023-06-22T09:47:49;99708.38;;;32.25;33.80
8320;BME280;4197;42.130;24.746;2023-06-22T09:50:18;99720.59;;;32.22;34.40
8320;BME280;4197;42.130;24.746;2023-06-22T09:52:46;99709.75;;;32.35;33.89
8320;BME280;4197;42.130;24.746;2023-06-22T09:55:17;99704.81;;;32.56;34.33
8320;BME280;4197;42.130;24.746;2023-06-22T09:57:46;99711.38;;;32.79;33.63
8320;BME280;4197;42.130;24.746;2023-06-22T10:00:19;99708.47;;;33.05;33.00
8320;BME280;4197;42.130;24.746;2023-06-22T10:02:48;99706.75;;;33.25;32.12
8320;BME280;4197;42.130;24.746;2023-06-22T10:05:17;99710.81;;;33.13;31.68
8320;BME280;4197;42.130;24.746;2023-06-22T10:07:46;99705.50;;;32.83;32.05
8320;BME280;4197;42.130;24.746;2023-06-22T10:10:14;99705.16;;;32.70;32.17
8320;BME280;4197;42.130;24.746;2023-06-22T10:12:45;99699.00;;;32.34;32.66
8320;BME280;4197;42.130;24.746;2023-06-22T10:15:14;99702.69;;;32.14;33.56
8320;BME280;4197;42.130;24.746;2023-06-22T10:17:44;99711.38;;;32.16;33.51
8320;BME280;4197;42.130;24.746;2023-06-22T10:20:15;99704.13;;;32.35;32.29
8320;BME280;4197;42.130;24.746;2023-06-22T10:22:45;99691.16;;;32.38;33.56
8320;BME280;4197;42.130;24.746;2023-06-22T10:25:14;99694.28;;;32.46;32.53
8320;BME280;4197;42.130;24.746;2023-06-22T10:27:43;99689.44;;;32.46;31.67
8320;BME280;4197;42.130;24.746;2023-06-22T10:30:12;99682.56;;;32.47;32.19
8320;BME280;4197;42.130;24.746;2023-06-22T10:32:42;99679.34;;;32.60;31.37
8320;BME280;4197;42.130;24.746;2023-06-22T10:35:12;99674.56;;;32.72;31.69
8320;BME280;4197;42.130;24.746;2023-06-22T10:37:43;99674.25;;;33.07;31.96
8320;BME280;4197;42.130;24.746;2023-06-22T10:40:13;99674.78;;;33.17;31.89
8320;BME280;4197;42.130;24.746;2023-06-22T10:42:42;99667.66;;;33.21;30.77
8320;BME280;4197;42.130;24.746;2023-06-22T10:45:11;99670.34;;;32.93;31.44
8320;BME280;4197;42.130;24.746;2023-06-22T10:47:39;99664.75;;;32.56;31.27
8320;BME280;4197;42.130;24.746;2023-06-22T10:50:10;99662.41;;;32.17;31.45
8320;BME280;4197;42.130;24.746;2023-06-22T10:52:40;99667.28;;;31.90;31.72
8320;BME280;4197;42.130;24.746;2023-06-22T10:55:09;99664.19;;;31.88;32.33
8320;BME280;4197;42.130;24.746;2023-06-22T10:57:38;99650.03;;;32.29;31.59
8320;BME280;4197;42.130;24.746;2023-06-22T11:00:11;99653.16;;;32.42;31.77
8320;BME280;4197;42.130;24.746;2023-06-22T11:02:40;99654.59;;;32.64;31.31
8320;BME280;4197;42.130;24.746;2023-06-22T11:05:09;99640.88;;;32.77;31.09
8320;BME280;4197;42.130;24.746;2023-06-22T11:07:39;99642.69;;;32.80;31.87
8320;BME280;4197;42.130;24.746;2023-06-22T11:10:12;99636.16;;;33.00;32.27
8320;BME280;4197;42.130;24.746;2023-06-22T11:12:41;99642.88;;;33.20;30.82
8320;BME280;4197;42.130;24.746;2023-06-22T11:15:10;99646.22;;;33.29;31.12
8320;BME280;4197;42.130;24.746;2023-06-22T11:17:39;99644.38;;;33.09;30.40
8320;BME280;4197;42.130;24.746;2023-06-22T11:20:07;99642.72;;;32.92;30.30
8320;BME280;4197;42.130;24.746;2023-06-22T11:22:53;99630.75;;;32.97;30.53
8320;BME280;4197;42.130;24.746;2023-06-22T11:25:22;99642.84;;;33.14;30.69
8320;BME280;4197;42.130;24.746;2023-06-22T11:27:51;99634.47;;;33.37;31.41
8320;BME280;4197;42.130;24.746;2023-06-22T11:30:20;99641.66;;;33.38;30.79
8320;BME280;4197;42.130;24.746;2023-06-22T11:32:49;99646.41;;;33.09;30.01
8320;BME280;4197;42.130;24.746;2023-06-22T11:35:18;99635.81;;;32.81;30.61
8320;BME280;4197;42.130;24.746;2023-06-22T11:37:46;99638.50;;;32.64;31.42
8320;BME280;4197;42.130;24.746;2023-06-22T11:40:16;99643.75;;;32.46;31.45
8320;BME280;4197;42.130;24.746;2023-06-22T11:42:44;99633.31;;;32.46;32.24
8320;BME280;4197;42.130;24.746;2023-06-22T11:45:12;99641.50;;;32.50;31.70
8320;BME280;4197;42.130;24.746;2023-06-22T11:47:40;99627.53;;;32.61;31.83
8320;BME280;4197;42.130;24.746;2023-06-22T11:50:09;99620.97;;;32.81;31.18
8320;BME280;4197;42.130;24.746;2023-06-22T11:52:37;99631.72;;;32.82;31.24
8320;BME280;4197;42.130;24.746;2023-06-22T11:55:06;99626.16;;;32.94;30.50
8320;BME280;4197;42.130;24.746;2023-06-22T11:57:38;99623.03;;;32.80;30.85
8320;BME280;4197;42.130;24.746;2023-06-22T12:00:07;99631.50;;;32.43;31.04
8320;BME280;4197;42.130;24.746;2023-06-22T12:02:43;99631.22;;;32.41;31.80
8320;BME280;4197;42.130;24.746;2023-06-22T12:05:12;99623.66;;;32.53;31.02
8320;BME280;4197;42.130;24.746;2023-06-22T12:07:40;99623.31;;;32.45;31.75
8320;BME280;4197;42.130;24.746;2023-06-22T12:10:09;99620.00;;;32.41;32.07
8320;BME280;4197;42.130;24.746;2023-06-22T12:12:39;99620.59;;;32.56;31.96
8320;BME280;4197;42.130;24.746;2023-06-22T12:15:12;99624.53;;;32.76;32.71
8320;BME280;4197;42.130;24.746;2023-06-22T12:17:40;99620.09;;;33.01;31.05
8320;BME280;4197;42.130;24.746;2023-06-22T12:20:09;99618.19;;;32.86;31.12
8320;BME280;4197;42.130;24.746;2023-06-22T12:22:37;99607.25;;;32.94;32.46
8320;BME280;4197;42.130;24.746;2023-06-22T12:25:06;99609.13;;;33.14;32.51
8320;BME280;4197;42.130;24.746;2023-06-22T12:27:35;99599.97;;;33.25;33.21
8320;BME280;4197;42.130;24.746;2023-06-22T12:30:05;99609.72;;;33.41;31.29
8320;BME280;4197;42.130;24.746;2023-06-22T12:32:34;99611.03;;;32.80;32.33
8320;BME280;4197;42.130;24.746;2023-06-22T12:35:03;99598.53;;;32.86;32.26
8320;BME280;4197;42.130;24.746;2023-06-22T12:37:31;99600.34;;;32.89;32.65
8320;BME280;4197;42.130;24.746;2023-06-22T12:40:00;99592.56;;;33.27;32.34
8320;BME280;4197;42.130;24.746;2023-06-22T12:42:30;99588.81;;;33.64;31.30
8320;BME280;4197;42.130;24.746;2023-06-22T12:44:58;99588.00;;;33.36;31.69
8320;BME280;4197;42.130;24.746;2023-06-22T12:47:28;99591.09;;;33.49;31.49
8320;BME280;4197;42.130;24.746;2023-06-22T12:49:56;99583.88;;;33.20;32.29
8320;BME280;4197;42.130;24.746;2023-06-22T12:52:24;99582.31;;;33.13;32.47
8320;BME280;4197;42.130;24.746;2023-06-22T12:54:52;99590.50;;;33.22;32.67
8320;BME280;4197;42.130;24.746;2023-06-22T12:57:21;99593.59;;;33.24;32.82
8320;BME280;4197;42.130;24.746;2023-06-22T12:59:50;99587.84;;;32.91;32.42
8320;BME280;4197;42.130;24.746;2023-06-22T13:02:18;99584.22;;;32.73;32.83
8320;BME280;4197;42.130;24.746;2023-06-22T13:04:48;99581.88;;;32.66;33.26
8320;BME280;4197;42.130;24.746;2023-06-22T13:07:16;99586.28;;;32.84;34.09
8320;BME280;4197;42.130;24.746;2023-06-22T13:09:49;99582.56;;;33.04;33.72
8320;BME280;4197;42.130;24.746;2023-06-22T13:12:19;99584.13;;;33.27;33.34
8320;BME280;4197;42.130;24.746;2023-06-22T13:14:48;99588.97;;;33.10;32.90
8320;BME280;4197;42.130;24.746;2023-06-22T13:17:17;99570.97;;;32.79;32.77
8320;BME280;4197;42.130;24.746;2023-06-22T13:19:45;99582.38;;;32.70;32.62
8320;BME280;4197;42.130;24.746;2023-06-22T13:22:29;99577.25;;;32.63;33.61